sensor_id;sensor_type;location;lat;lon;timestamp;pressure;altitude;pressure_sealevel;temperature;humidity
3917;BME280;1973;50.518;7.318;2022-08-19T00:01:34;100596.44;;;19.33;100.00
3917;BME280;1973;50.518;7.318;2022-08-19T00:04:08;100605.66;;;19.29;100.00
3917;BME280;1973;50.518;7.318;2022-08-19T00:06:36;100602.88;;;19.24;100.00
3917;BME280;1973;50.518;7.318;2022-08-19T00:09:05;100606.75;;;19.23;100.00
3917;BME280;1973;50.518;7.318;2022-08-19T00:11:33;100612.91;;;19.20;100.00
3917;BME280;1973;50.518;7.318;2022-08-19T00:14:05;100611.22;;;19.19;100.00
3917;BME280;1973;50.518;7.318;2022-08-19T00:16:32;100608.16;;;19.15;100.00
3917;BME280;1973;50.518;7.318;2022-08-19T00:18:58;100608.44;;;19.14;100.00
3917;BME280;1973;50.518;7.318;2022-08-19T00:21:26;100611.50;;;19.12;100.00
3917;BME280;1973;50.518;7.318;2022-08-19T00:23:54;100602.59;;;19.10;100.00
3917;BME280;1973;50.518;7.318;2022-08-19T00:26:20;100603.94;;;19.08;100.00
3917;BME280;1973;50.518;7.318;2022-08-19T00:28:47;100609.81;;;19.06;100.00
3917;BME280;1973;50.518;7.318;2022-08-19T00:31:14;100610.34;;;19.03;100.00
3917;BME280;1973;50.518;7.318;2022-08-19T00:33:42;100616.22;;;19.02;100.00
3917;BME280;1973;50.518;7.318;2022-08-19T00:36:10;100625.72;;;19.01;100.00
3917;BME280;1973;50.518;7.318;2022-08-19T00:38:38;100623.22;;;18.99;100.00
3917;BME280;1973;50.518;7.318;2022-08-19T00:41:07;100622.91;;;18.95;100.00
3917;BME280;1973;50.518;7.318;2022-08-19T00:43:34;100617.34;;;18.95;100.00
3917;BME280;1973;50.518;7.318;2022-08-19T00:46:00;100618.44;;;18.94;100.00
3917;BME280;1973;50.518;7.318;2022-08-19T00:48:32;100610.63;;;18.91;100.00
3917;BME280;1973;50.518;7.318;2022-08-19T00:50:59;100609.78;;;18.91;100.00
3917;BME280;1973;50.518;7.318;2022-08-19T00:53:27;100607.25;;;18.89;100.00
3917;BME280;1973;50.518;7.318;2022-08-19T00:55:56;100599.19;;;18.88;100.00
3917;BME280;1973;50.518;7.318;2022-08-19T00:58:27;100591.06;;;18.86;100.00
3917;BME280;1973;50.518;7.318;2022-08-19T01:00:55;100589.41;;;18.85;100.00
3917;BME280;1973;50.518;7.318;2022-08-19T01:03:21;100592.75;;;18.87;100.00
3917;BME280;1973;50.518;7.318;2022-08-19T01:05:49;100595.56;;;18.87;100.00
3917;BME280;1973;50.518;7.318;2022-08-19T01:08:18;100593.59;;;18.88;100.00
3917;BME280;1973;50.518;7.318;2022-08-19T01:10:49;100600.00;;;18.88;100.00
3917;BME280;1973;50.518;7.318;2022-08-19T01:13:19;100596.66;;;18.86;100.00
3917;BME280;1973;50.518;7.318;2022-08-19T01:15:57;100593.84;;;18.81;100.00
3917;BME280;1973;50.518;7.318;2022-08-19T01:18:24;100597.78;;;18.80;100.00
3917;BME280;1973;50.518;7.318;2022-08-19T01:20:54;100612.25;;;18.77;100.00
3917;BME280;1973;50.518;7.318;2022-08-19T01:23:22;100603.31;;;18.75;100.00
3917;BME280;1973;50.518;7.318;2022-08-19T01:26:17;100596.06;;;18.74;100.00
3917;BME280;1973;50.518;7.318;2022-08-19T01:28:47;100610.84;;;18.75;100.00
3917;BME280;1973;50.518;7.318;2022-08-19T01:31:23;100611.44;;;18.77;100.00
3917;BME280;1973;50.518;7.318;2022-08-19T01:33:55;100606.13;;;18.75;100.00
3917;BME280;1973;50.518;7.318;2022-08-19T01:37:02;100611.69;;;18.75;100.00
3917;BME280;1973;50.518;7.318;2022-08-19T01:39:24;100615.59;;;18.74;100.00
3917;BME280;1973;50.518;7.318;2022-08-19T01:41:51;100607.22;;;18.74;100.00
3917;BME280;1973;50.518;7.318;2022-08-19T01:44:20;100606.97;;;18.76;100.00
3917;BME280;1973;50.518;7.318;2022-08-19T01:46:51;100608.91;;;18.75;100.00
3917;BME280;1973;50.518;7.318;2022-08-19T01:49:20;100605.56;;;18.73;100.00
3917;BME280;1973;50.518;7.318;2022-08-19T01:51:48;100605.81;;;18.72;100.00
3917;BME280;1973;50.518;7.318;2022-08-19T01:54:17;100596.06;;;18.69;100.00
3917;BME280;1973;50.518;7.318;2022-08-19T01:56:57;100598.81;;;18.64;100.00
3917;BME280;1973;50.518;7.318;2022-08-19T01:59:24;100598.53;;;18.61;100.00
3917;BME280;1973;50.518;7.318;2022-08-19T02:01:50;100594.34;;;18.58;100.00
3917;BME280;1973;50.518;7.318;2022-08-19T02:04:17;100592.66;;;18.57;100.00
3917;BME280;1973;50.518;7.318;2022-08-19T02:06:43;100591.81;;;18.57;100.00
3917;BME280;1973;50.518;7.318;2022-08-19T02:09:10;100595.72;;;18.56;100.00
3917;BME280;1973;50.518;7.318;2022-08-19T02:11:37;100590.97;;;18.56;100.00
3917;BME280;1973;50.518;7.318;2022-08-19T02:14:06;100596.56;;;18.56;100.00
3917;BME280;1973;50.518;7.318;2022-08-19T02:16:34;100589.88;;;18.57;100.00
3917;BME280;1973;50.518;7.318;2022-08-19T02:19:01;100589.28;;;18.55;100.00
3917;BME280;1973;50.518;7.318;2022-08-19T02:21:28;100589.28;;;18.55;100.00
3917;BME280;1973;50.518;7.318;2022-08-19T02:23:56;100593.22;;;18.54;100.00
3917;BME280;1973;50.518;7.318;2022-08-19T02:26:23;100602.69;;;18.53;100.00
3917;BME280;1973;50.518;7.318;2022-08-19T02:28:49;100601.00;;;18.52;100.00
3917;BME280;1973;50.518;7.318;2022-08-19T02:31:19;100602.38;;;18.49;100.00
3917;BME280;1973;50.518;7.318;2022-08-19T02:33:46;100598.19;;;18.47;100.00
3917;BME280;1973;50.518;7.318;2022-08-19T02:36:14;100596.50;;;18.46;100.00
3917;BME280;1973;50.518;7.318;2022-08-19T02:38:47;100602.63;;;18.43;100.00
3917;BME280;1973;50.518;7.318;2022-08-19T02:41:32;100596.47;;;18.41;100.00
3917;BME280;1973;50.518;7.318;2022-08-19T02:44:00;100596.75;;;18.39;100.00
3917;BME280;1973;50.518;7.318;2022-08-19T02:46:48;100595.91;;;18.39;100.00
3917;BME280;1973;50.518;7.318;2022-08-19T02:49:18;100594.22;;;18.38;100.00
3917;BME280;1973;50.518;7.318;2022-08-19T02:51:46;100598.13;;;18.37;100.00
3917;BME280;1973;50.518;7.318;2022-08-19T02:54:13;100601.19;;;18.35;100.00
3917;BME280;1973;50.518;7.318;2022-08-19T02:56:41;100609.81;;;18.34;100.00
3917;BME280;1973;50.518;7.318;2022-08-19T02:59:08;100607.56;;;18.31;100.00
3917;BME280;1973;50.518;7.318;2022-08-19T03:01:37;100600.31;;;18.30;100.00
3917;BME280;1973;50.518;7.318;2022-08-19T03:04:08;100595.88;;;18.29;100.00
3917;BME280;1973;50.518;7.318;2022-08-19T03:06:37;100601.97;;;18.26;100.00
3917;BME280;1973;50.518;7.318;2022-08-19T03:09:03;100614.78;;;18.27;100.00
3917;BME280;1973;50.518;7.318;2022-08-19T03:11:32;100600.84;;;18.27;100.00
3917;BME280;1973;50.518;7.318;2022-08-19T03:13:59;100611.47;;;18.25;100.00
3917;BME280;1973;50.518;7.318;2022-08-19T03:16:28;100610.88;;;18.23;100.00
3917;BME280;1973;50.518;7.318;2022-08-19T03:18:59;100624.81;;;18.23;100.00
3917;BME280;1973;50.518;7.318;2022-08-19T03:21:29;100609.47;;;18.20;100.00
3917;BME280;1973;50.518;7.318;2022-08-19T03:23:59;100610.56;;;18.19;100.00
3917;BME280;1973;50.518;7.318;2022-08-19T03:26:27;100605.28;;;18.18;100.00
3917;BME280;1973;50.518;7.318;2022-08-19T03:28:54;100616.44;;;18.18;100.00
3917;BME280;1973;50.518;7.318;2022-08-19T03:31:25;100622.53;;;18.15;100.00
3917;BME280;1973;50.518;7.318;2022-08-19T03:34:32;100632.56;;;18.11;100.00
3917;BME280;1973;50.518;7.318;2022-08-19T03:37:04;100624.47;;;18.09;100.00
3917;BME280;1973;50.518;7.318;2022-08-19T03:39:32;100625.84;;;18.07;100.00
3917;BME280;1973;50.518;7.318;2022-08-19T03:41:58;100618.59;;;18.06;100.00
3917;BME280;1973;50.518;7.318;2022-08-19T03:44:48;100624.69;;;18.03;100.00
3917;BME280;1973;50.518;7.318;2022-08-19T03:47:15;100626.06;;;18.00;100.00
3917;BME280;1973;50.518;7.318;2022-08-19T03:49:43;100626.34;;;17.98;100.00
3917;BME280;1973;50.518;7.318;2022-08-19T03:52:09;100623.56;;;17.98;100.00
3917;BME280;1973;50.518;7.318;2022-08-19T03:54:36;100636.41;;;17.99;100.00
3917;BME280;1973;50.518;7.318;2022-08-19T03:57:04;100634.69;;;17.98;100.00
3917;BME280;1973;50.518;7.318;2022-08-19T03:59:33;100633.84;;;17.98;100.00
3917;BME280;1973;50.518;7.318;2022-08-19T04:02:05;100639.69;;;17.96;100.00
3917;BME280;1973;50.518;7.318;2022-08-19T04:04:35;100636.06;;;17.96;100.00
3917;BME280;1973;50.518;7.318;2022-08-19T04:07:02;100633.56;;;17.94;100.00
3917;BME280;1973;50.518;7.318;2022-08-19T04:09:29;100632.16;;;17.92;100.00
3917;BME280;1973;50.518;7.318;2022-08-19T04:11:57;100640.78;;;17.90;100.00
3917;BME280;1973;50.518;7.318;2022-08-19T04:14:26;100642.41;;;17.86;100.00
3917;BME280;1973;50.518;7.318;2022-08-19T04:16:55;100640.41;;;17.82;100.00
3917;BME280;1973;50.518;7.318;2022-08-19T04:19:22;100651.56;;;17.82;100.00
3917;BME280;1973;50.518;7.318;2022-08-19T04:21:51;100642.94;;;17.83;100.00
3917;BME280;1973;50.518;7.318;2022-08-19T04:24:19;100649.38;;;17.84;100.00
3917;BME280;1973;50.518;7.318;2022-08-19T04:26:46;100648.53;;;17.83;100.00
3917;BME280;1973;50.518;7.318;2022-08-19T04:29:18;100639.06;;;17.84;100.00
3917;BME280;1973;50.518;7.318;2022-08-19T04:31:48;100651.31;;;17.83;100.00
3917;BME280;1973;50.518;7.318;2022-08-19T04:34:18;100654.63;;;17.80;100.00
3917;BME280;1973;50.518;7.318;2022-08-19T04:36:49;100651.25;;;17.78;100.00
3917;BME280;1973;50.518;7.318;2022-08-19T04:39:20;100654.31;;;17.77;100.00
3917;BME280;1973;50.518;7.318;2022-08-19T04:41:47;100654.03;;;17.73;100.00
3917;BME280;1973;50.518;7.318;2022-08-19T04:44:34;100659.28;;;17.70;100.00
3917;BME280;1973;50.518;7.318;2022-08-19T04:47:10;100658.97;;;17.66;100.00
3917;BME280;1973;50.518;7.318;2022-08-19T04:49:37;100653.41;;;17.66;100.00
3917;BME280;1973;50.518;7.318;2022-08-19T04:52:03;100663.69;;;17.66;100.00
3917;BME280;1973;50.518;7.318;2022-08-19T04:54:30;100664.81;;;17.65;100.00
3917;BME280;1973;50.518;7.318;2022-08-19T04:57:07;100670.38;;;17.65;100.00
3917;BME280;1973;50.518;7.318;2022-08-19T04:59:36;100671.22;;;17.65;100.00
3917;BME280;1973;50.518;7.318;2022-08-19T05:02:03;100677.88;;;17.64;100.00
3917;BME280;1973;50.518;7.318;2022-08-19T05:04:30;100681.75;;;17.63;100.00
3917;BME280;1973;50.518;7.318;2022-08-19T05:06:58;100677.31;;;17.62;100.00
3917;BME280;1973;50.518;7.318;2022-08-19T05:09:27;100680.66;;;17.64;100.00
3917;BME280;1973;50.518;7.318;2022-08-19T05:12:13;100683.44;;;17.64;100.00
3917;BME280;1973;50.518;7.318;2022-08-19T05:14:40;100677.34;;;17.67;100.00
3917;BME280;1973;50.518;7.318;2022-08-19T05:17:06;100680.72;;;17.69;100.00
3917;BME280;1973;50.518;7.318;2022-08-19T05:19:52;100678.50;;;17.71;100.00
3917;BME280;1973;50.518;7.318;2022-08-19T05:22:38;100677.13;;;17.74;100.00
3917;BME280;1973;50.518;7.318;2022-08-19T05:25:08;100677.44;;;17.77;100.00
3917;BME280;1973;50.518;7.318;2022-08-19T05:27:39;100678.56;;;17.81;100.00
3917;BME280;1973;50.518;7.318;2022-08-19T05:30:06;100677.22;;;17.84;100.00
3917;BME280;1973;50.518;7.318;2022-08-19T05:32:32;100680.88;;;17.89;100.00
3917;BME280;1973;50.518;7.318;2022-08-19T05:34:59;100689.28;;;17.94;100.00
3917;BME280;1973;50.518;7.318;2022-08-19T05:37:25;100696.00;;;17.98;100.00
3917;BME280;1973;50.518;7.318;2022-08-19T05:39:53;100686.31;;;18.06;100.00
3917;BME280;1973;50.518;7.318;2022-08-19T05:42:21;100700.00;;;18.13;100.00
3917;BME280;1973;50.518;7.318;2022-08-19T05:44:49;100685.56;;;18.21;100.00
3917;BME280;1973;50.518;7.318;2022-08-19T05:47:17;100688.13;;;18.27;100.00
3917;BME280;1973;50.518;7.318;2022-08-19T05:49:46;100679.81;;;18.37;100.00
3917;BME280;1973;50.518;7.318;2022-08-19T05:52:14;100680.13;;;18.46;100.00
3917;BME280;1973;50.518;7.318;2022-08-19T05:54:43;100686.91;;;18.55;100.00
3917;BME280;1973;50.518;7.318;2022-08-19T05:57:13;100694.50;;;18.65;100.00
3917;BME280;1973;50.518;7.318;2022-08-19T05:59:40;100688.09;;;18.74;100.00
3917;BME280;1973;50.518;7.318;2022-08-19T06:02:08;100688.44;;;18.83;100.00
3917;BME280;1973;50.518;7.318;2022-08-19T06:04:34;100685.97;;;18.91;100.00
3917;BME280;1973;50.518;7.318;2022-08-19T06:07:01;100675.94;;;19.01;100.00
3917;BME280;1973;50.518;7.318;2022-08-19T06:09:39;100681.53;;;19.11;100.00
3917;BME280;1973;50.518;7.318;2022-08-19T06:12:06;100672.38;;;19.20;100.00
3917;BME280;1973;50.518;7.318;2022-08-19T06:14:35;100663.16;;;19.30;100.00
3917;BME280;1973;50.518;7.318;2022-08-19T06:17:07;100657.63;;;19.40;100.00
3917;BME280;1973;50.518;7.318;2022-08-19T06:19:33;100657.66;;;19.50;100.00
3917;BME280;1973;50.518;7.318;2022-08-19T06:22:06;100664.34;;;19.64;100.00
3917;BME280;1973;50.518;7.318;2022-08-19T06:24:33;100658.19;;;19.77;100.00
3917;BME280;1973;50.518;7.318;2022-08-19T06:27:03;100667.16;;;19.89;100.00
3917;BME280;1973;50.518;7.318;2022-08-19T06:29:31;100671.59;;;20.01;100.00
3917;BME280;1973;50.518;7.318;2022-08-19T06:32:00;100676.06;;;20.12;100.00
3917;BME280;1973;50.518;7.318;2022-08-19T06:34:29;100678.00;;;20.21;100.00
3917;BME280;1973;50.518;7.318;2022-08-19T06:36:58;100669.63;;;20.31;100.00
3917;BME280;1973;50.518;7.318;2022-08-19T06:39:31;100676.88;;;20.37;100.00
3917;BME280;1973;50.518;7.318;2022-08-19T06:42:00;100683.03;;;20.45;100.00
3917;BME280;1973;50.518;7.318;2022-08-19T06:44:29;100693.91;;;20.51;100.00
3917;BME280;1973;50.518;7.318;2022-08-19T06:46:58;100695.59;;;20.57;100.00
3917;BME280;1973;50.518;7.318;2022-08-19T06:49:25;100697.22;;;20.63;100.00
3917;BME280;1973;50.518;7.318;2022-08-19T06:51:53;100701.97;;;20.68;100.00
3917;BME280;1973;50.518;7.318;2022-08-19T06:54:22;100705.59;;;20.73;100.00
3917;BME280;1973;50.518;7.318;2022-08-19T06:56:58;100701.66;;;20.79;100.00
3917;BME280;1973;50.518;7.318;2022-08-19T06:59:29;100707.22;;;20.84;100.00
3917;BME280;1973;50.518;7.318;2022-08-19T07:02:00;100712.28;;;20.87;100.00
3917;BME280;1973;50.518;7.318;2022-08-19T07:04:29;100710.84;;;20.95;100.00
3917;BME280;1973;50.518;7.318;2022-08-19T07:07:08;100722.00;;;21.00;100.00
3917;BME280;1973;50.518;7.318;2022-08-19T07:09:46;100722.00;;;21.05;100.00
3917;BME280;1973;50.518;7.318;2022-08-19T07:12:28;100718.88;;;21.07;100.00
3917;BME280;1973;50.518;7.318;2022-08-19T07:14:56;100722.53;;;21.12;100.00
3917;BME280;1973;50.518;7.318;2022-08-19T07:17:23;100732.31;;;21.20;100.00
3917;BME280;1973;50.518;7.318;2022-08-19T07:19:50;100730.28;;;21.30;100.00
3917;BME280;1973;50.518;7.318;2022-08-19T07:22:20;100726.06;;;21.38;100.00
3917;BME280;1973;50.518;7.318;2022-08-19T07:24:50;100728.00;;;21.43;100.00
3917;BME280;1973;50.518;7.318;2022-08-19T07:27:18;100726.81;;;21.54;100.00
3917;BME280;1973;50.518;7.318;2022-08-19T07:29:52;100720.03;;;21.60;100.00
3917;BME280;1973;50.518;7.318;2022-08-19T07:32:25;100719.94;;;21.70;100.00
3917;BME280;1973;50.518;7.318;2022-08-19T07:34:55;100726.91;;;21.77;100.00
3917;BME280;1973;50.518;7.318;2022-08-19T07:37:23;100734.69;;;21.85;100.00
3917;BME280;1973;50.518;7.318;2022-08-19T07:39:58;100731.31;;;21.94;100.00
3917;BME280;1973;50.518;7.318;2022-08-19T07:42:25;100725.94;;;21.97;100.00
3917;BME280;1973;50.518;7.318;2022-08-19T07:44:51;100726.44;;;22.04;100.00
3917;BME280;1973;50.518;7.318;2022-08-19T07:47:18;100719.97;;;22.09;100.00
3917;BME280;1973;50.518;7.318;2022-08-19T07:50:07;100718.75;;;22.20;100.00
3917;BME280;1973;50.518;7.318;2022-08-19T07:52:34;100717.78;;;22.29;100.00
3917;BME280;1973;50.518;7.318;2022-08-19T07:55:03;100725.56;;;22.38;100.00
3917;BME280;1973;50.518;7.318;2022-08-19T07:57:30;100719.13;;;22.37;100.00
3917;BME280;1973;50.518;7.318;2022-08-19T07:59:56;100720.44;;;22.45;100.00
3917;BME280;1973;50.518;7.318;2022-08-19T08:02:23;100715.03;;;22.53;100.00
3917;BME280;1973;50.518;7.318;2022-08-19T08:04:49;100718.31;;;22.60;100.00
3917;BME280;1973;50.518;7.318;2022-08-19T08:07:35;100717.47;;;22.60;100.00
3917;BME280;1973;50.518;7.318;2022-08-19T08:10:20;100715.44;;;22.65;100.00
3917;BME280;1973;50.518;7.318;2022-08-19T08:12:50;100716.50;;;22.74;100.00
3917;BME280;1973;50.518;7.318;2022-08-19T08:15:36;100711.31;;;22.87;100.00
3917;BME280;1973;50.518;7.318;2022-08-19T08:18:08;100707.59;;;22.91;100.00
3917;BME280;1973;50.518;7.318;2022-08-19T08:20:35;100712.25;;;23.01;100.00
3917;BME280;1973;50.518;7.318;2022-08-19T08:23:02;100704.00;;;23.09;100.00
3917;BME280;1973;50.518;7.318;2022-08-19T08:25:47;100710.09;;;23.16;100.00
3917;BME280;1973;50.518;7.318;2022-08-19T08:28:16;100705.44;;;23.25;100.00
3917;BME280;1973;50.518;7.318;2022-08-19T08:30:44;100705.38;;;23.31;100.00
3917;BME280;1973;50.518;7.318;2022-08-19T08:33:13;100708.88;;;23.41;100.00
3917;BME280;1973;50.518;7.318;2022-08-19T08:35:41;100703.69;;;23.53;100.00
3917;BME280;1973;50.518;7.318;2022-08-19T08:38:08;100713.09;;;23.62;100.00
3917;BME280;1973;50.518;7.318;2022-08-19T08:40:44;100709.59;;;23.70;100.00
3917;BME280;1973;50.518;7.318;2022-08-19T08:43:34;100711.09;;;23.82;100.00
3917;BME280;1973;50.518;7.318;2022-08-19T08:46:19;100712.69;;;23.88;100.00
3917;BME280;1973;50.518;7.318;2022-08-19T08:48:59;100707.81;;;23.93;100.00
3917;BME280;1973;50.518;7.318;2022-08-19T08:51:32;100705.75;;;23.99;100.00
3917;BME280;1973;50.518;7.318;2022-08-19T08:54:03;100706.19;;;24.06;100.00
3917;BME280;1973;50.518;7.318;2022-08-19T08:56:35;100701.63;;;24.10;100.00
3917;BME280;1973;50.518;7.318;2022-08-19T08:59:20;100704.81;;;24.22;100.00
3917;BME280;1973;50.518;7.318;2022-08-19T09:01:48;100707.44;;;24.32;100.00
3917;BME280;1973;50.518;7.318;2022-08-19T09:04:15;100701.72;;;24.37;100.00
3917;BME280;1973;50.518;7.318;2022-08-19T09:10:10;100714.97;;;24.50;100.00
3917;BME280;1973;50.518;7.318;2022-08-19T09:13:00;100717.84;;;24.64;100.00
3917;BME280;1973;50.518;7.318;2022-08-19T09:15:39;100698.84;;;24.69;100.00
3917;BME280;1973;50.518;7.318;2022-08-19T09:18:08;100711.16;;;24.73;100.00
3917;BME280;1973;50.518;7.318;2022-08-19T09:20:40;100701.34;;;24.71;100.00
3917;BME280;1973;50.518;7.318;2022-08-19T09:23:08;100708.66;;;24.72;100.00
3917;BME280;1973;50.518;7.318;2022-08-19T09:25:36;100696.97;;;24.79;100.00
3917;BME280;1973;50.518;7.318;2022-08-19T09:28:03;100692.00;;;24.89;100.00
3917;BME280;1973;50.518;7.318;2022-08-19T09:30:41;100689.69;;;25.05;99.51
3917;BME280;1973;50.518;7.318;2022-08-19T09:33:08;100688.63;;;25.14;99.96
3917;BME280;1973;50.518;7.318;2022-08-19T09:35:34;100684.00;;;25.32;98.70
3917;BME280;1973;50.518;7.318;2022-08-19T09:38:18;100682.75;;;25.38;98.58
3917;BME280;1973;50.518;7.318;2022-08-19T09:40:44;100687.53;;;25.51;97.60
3917;BME280;1973;50.518;7.318;2022-08-19T09:43:11;100680.06;;;25.69;96.03
3917;BME280;1973;50.518;7.318;2022-08-19T09:45:39;100674.88;;;25.85;95.20
3917;BME280;1973;50.518;7.318;2022-08-19T09:48:06;100678.53;;;26.07;94.47
3917;BME280;1973;50.518;7.318;2022-08-19T09:50:34;100683.53;;;26.10;93.35
3917;BME280;1973;50.518;7.318;2022-08-19T09:53:17;100662.81;;;26.15;92.43
3917;BME280;1973;50.518;7.318;2022-08-19T09:55:43;100664.53;;;26.25;91.79
3917;BME280;1973;50.518;7.318;2022-08-19T09:58:10;100671.91;;;26.34;89.63
3917;BME280;1973;50.518;7.318;2022-08-19T10:00:37;100681.72;;;26.37;87.88
3917;BME280;1973;50.518;7.318;2022-08-19T10:03:04;100681.44;;;26.47;87.30
3917;BME280;1973;50.518;7.318;2022-08-19T10:05:32;100674.50;;;26.53;85.72
3917;BME280;1973;50.518;7.318;2022-08-19T10:08:33;100678.00;;;26.58;81.80
3917;BME280;1973;50.518;7.318;2022-08-19T10:11:01;100678.72;;;26.64;84.43
3917;BME280;1973;50.518;7.318;2022-08-19T10:13:48;100674.25;;;26.72;83.99
3917;BME280;1973;50.518;7.318;2022-08-19T10:16:20;100670.13;;;26.78;83.09
3917;BME280;1973;50.518;7.318;2022-08-19T10:18:56;100672.22;;;27.03;81.65
3917;BME280;1973;50.518;7.318;2022-08-19T10:21:29;100660.63;;;27.30;78.77
3917;BME280;1973;50.518;7.318;2022-08-19T10:24:00;100662.63;;;27.38;77.74
3917;BME280;1973;50.518;7.318;2022-08-19T10:26:30;100649.66;;;27.37;75.18
3917;BME280;1973;50.518;7.318;2022-08-19T10:28:57;100657.63;;;27.35;76.93
3917;BME280;1973;50.518;7.318;2022-08-19T10:31:26;100659.47;;;27.40;75.71
3917;BME280;1973;50.518;7.318;2022-08-19T10:34:13;100653.03;;;27.48;75.65
3917;BME280;1973;50.518;7.318;2022-08-19T10:36:53;100649.19;;;27.70;74.89
3917;BME280;1973;50.518;7.318;2022-08-19T10:39:26;100634.84;;;27.83;72.71
3917;BME280;1973;50.518;7.318;2022-08-19T10:41:56;100639.03;;;27.86;70.44
3917;BME280;1973;50.518;7.318;2022-08-19T10:44:23;100641.69;;;28.08;69.84
3917;BME280;1973;50.518;7.318;2022-08-19T10:46:57;100628.03;;;27.93;69.54
3917;BME280;1973;50.518;7.318;2022-08-19T10:49:25;100633.69;;;27.93;68.70
3917;BME280;1973;50.518;7.318;2022-08-19T10:51:53;100619.72;;;27.71;68.85
3917;BME280;1973;50.518;7.318;2022-08-19T10:54:46;100639.66;;;27.31;68.44
3917;BME280;1973;50.518;7.318;2022-08-19T10:57:34;100642.34;;;27.45;68.81
3917;BME280;1973;50.518;7.318;2022-08-19T11:00:22;100629.38;;;27.70;68.56
3917;BME280;1973;50.518;7.318;2022-08-19T11:02:50;100618.84;;;27.87;67.68
3917;BME280;1973;50.518;7.318;2022-08-19T11:05:17;100631.53;;;27.90;65.38
3917;BME280;1973;50.518;7.318;2022-08-19T11:07:44;100628.00;;;28.10;64.08
3917;BME280;1973;50.518;7.318;2022-08-19T11:10:13;100630.81;;;28.19;63.98
3917;BME280;1973;50.518;7.318;2022-08-19T11:12:46;100626.56;;;28.42;63.69
3917;BME280;1973;50.518;7.318;2022-08-19T11:15:13;100621.09;;;28.37;64.21
3917;BME280;1973;50.518;7.318;2022-08-19T11:17:39;100628.88;;;28.48;61.46
3917;BME280;1973;50.518;7.318;2022-08-19T11:20:11;100614.16;;;28.64;60.31
3917;BME280;1973;50.518;7.318;2022-08-19T11:22:38;100619.19;;;28.87;58.59
3917;BME280;1973;50.518;7.318;2022-08-19T11:25:09;100612.88;;;29.11;57.48
3917;BME280;1973;50.518;7.318;2022-08-19T11:27:40;100621.13;;;29.45;54.05
3917;BME280;1973;50.518;7.318;2022-08-19T11:30:12;100610.13;;;29.65;55.32
3917;BME280;1973;50.518;7.318;2022-08-19T11:32:40;100607.31;;;29.98;54.64
3917;BME280;1973;50.518;7.318;2022-08-19T11:35:14;100595.78;;;30.27;53.22
3917;BME280;1973;50.518;7.318;2022-08-19T11:37:42;100601.13;;;30.28;51.19
3917;BME280;1973;50.518;7.318;2022-08-19T11:40:08;100592.34;;;30.21;50.11
3917;BME280;1973;50.518;7.318;2022-08-19T11:42:35;100586.56;;;30.30;49.75
3917;BME280;1973;50.518;7.318;2022-08-19T11:45:21;100598.09;;;30.46;49.66
3917;BME280;1973;50.518;7.318;2022-08-19T11:47:47;100590.97;;;30.64;48.19
3917;BME280;1973;50.518;7.318;2022-08-19T11:50:15;100576.06;;;30.79;46.95
3917;BME280;1973;50.518;7.318;2022-08-19T11:52:43;100571.31;;;30.83;46.21
3917;BME280;1973;50.518;7.318;2022-08-19T11:55:12;100586.38;;;30.71;45.68
3917;BME280;1973;50.518;7.318;2022-08-19T11:57:39;100588.38;;;30.83;45.66
3917;BME280;1973;50.518;7.318;2022-08-19T12:00:07;100571.31;;;30.83;44.78
3917;BME280;1973;50.518;7.318;2022-08-19T12:02:35;100584.84;;;30.98;44.58
3917;BME280;1973;50.518;7.318;2022-08-19T12:05:02;100569.91;;;30.53;45.41
3917;BME280;1973;50.518;7.318;2022-08-19T12:07:33;100594.47;;;30.24;45.76
3917;BME280;1973;50.518;7.318;2022-08-19T12:10:00;100597.81;;;30.26;46.10
3917;BME280;1973;50.518;7.318;2022-08-19T12:12:28;100584.03;;;30.04;46.21
3917;BME280;1973;50.518;7.318;2022-08-19T12:14:55;100574.22;;;30.14;45.35
3917;BME280;1973;50.518;7.318;2022-08-19T12:17:25;100579.13;;;30.37;45.02
3917;BME280;1973;50.518;7.318;2022-08-19T12:19:53;100575.13;;;30.63;44.50
3917;BME280;1973;50.518;7.318;2022-08-19T12:22:19;100579.88;;;30.71;43.67
3917;BME280;1973;50.518;7.318;2022-08-19T12:24:47;100576.28;;;30.86;43.58
3917;BME280;1973;50.518;7.318;2022-08-19T12:27:16;100556.59;;;31.05;43.13
3917;BME280;1973;50.518;7.318;2022-08-19T12:30:04;100571.09;;;31.00;42.26
3917;BME280;1973;50.518;7.318;2022-08-19T12:32:31;100566.78;;;31.18;42.18
3917;BME280;1973;50.518;7.318;2022-08-19T12:34:58;100553.66;;;31.42;41.58
3917;BME280;1973;50.518;7.318;2022-08-19T12:37:24;100558.88;;;31.39;41.23
3917;BME280;1973;50.518;7.318;2022-08-19T12:39:51;100565.22;;;31.49;41.03
3917;BME280;1973;50.518;7.318;2022-08-19T12:42:17;100550.00;;;31.69;41.14
3917;BME280;1973;50.518;7.318;2022-08-19T12:44:44;100544.56;;;31.64;40.30
3917;BME280;1973;50.518;7.318;2022-08-19T12:47:12;100548.16;;;31.49;40.73
3917;BME280;1973;50.518;7.318;2022-08-19T12:49:41;100553.75;;;31.45;39.92
3917;BME280;1973;50.518;7.318;2022-08-19T12:52:24;100546.28;;;31.13;40.50
3917;BME280;1973;50.518;7.318;2022-08-19T12:54:51;100539.97;;;31.19;39.75
3917;BME280;1973;50.518;7.318;2022-08-19T12:57:20;100547.59;;;31.43;39.47
3917;BME280;1973;50.518;7.318;2022-08-19T12:59:52;100545.88;;;31.26;39.63
3917;BME280;1973;50.518;7.318;2022-08-19T13:02:19;100556.34;;;31.22;40.01
3917;BME280;1973;50.518;7.318;2022-08-19T13:04:47;100565.97;;;31.18;39.89
3917;BME280;1973;50.518;7.318;2022-08-19T13:07:13;100547.34;;;31.08;39.50
3917;BME280;1973;50.518;7.318;2022-08-19T13:09:40;100543.09;;;31.14;39.73
3917;BME280;1973;50.518;7.318;2022-08-19T13:12:08;100539.97;;;31.19;39.56
3917;BME280;1973;50.518;7.318;2022-08-19T13:14:39;100542.97;;;31.38;38.99
3917;BME280;1973;50.518;7.318;2022-08-19T13:17:07;100540.44;;;31.61;38.77
3917;BME280;1973;50.518;7.318;2022-08-19T13:19:36;100530.00;;;31.81;38.72
3917;BME280;1973;50.518;7.318;2022-08-19T13:22:02;100522.06;;;31.74;38.65
3917;BME280;1973;50.518;7.318;2022-08-19T13:24:32;100520.34;;;31.70;38.26